Terminal Aerodrome Forecast
Issued by NWS Duluth, MN

Home | Current Version | Previous Version | Text Only | Print | Product List | Glossary On
Versions: 1 2 3 4 5 6 7 8 9 10 11 12 13 14 15 16 17 18 19 20 21
093
FTUS43 KDLH 211631 AAD
TAFDLH
TAF AMD
KDLH 211631Z 2117/2212 30009KT P6SM SCT050
     FM212100 28012KT P6SM SCT060
     FM220100 24005KT P6SM SKC
     FM221000 21005KT P6SM SCT150 WS010/22035KT=

USA.gov is the U.S. government's official web portal to all federal, state and local government web resources and services.